createdAt,value
2018-06-12T00:00:10.752Z,15.69
2018-06-12T00:01:19.391Z,15.62
2018-06-12T00:02:28.564Z,15.65
2018-06-12T00:03:37.209Z,15.62
2018-06-12T00:04:46.128Z,15.6
2018-06-12T00:05:55.032Z,15.6
2018-06-12T00:07:03.676Z,15.52
2018-06-12T00:08:12.318Z,15.48
2018-06-12T00:09:20.962Z,15.62
2018-06-12T00:10:29.881Z,15.54
2018-06-12T00:11:38.523Z,15.48
2018-06-12T00:12:47.172Z,15.52
2018-06-12T00:13:55.809Z,15.54
2018-06-12T00:15:04.464Z,15.51
2018-06-12T00:16:13.103Z,15.51
2018-06-12T00:17:21.752Z,15.48
2018-06-12T00:18:30.391Z,15.5
2018-06-12T00:19:39.312Z,15.57
2018-06-12T00:20:47.956Z,15.55
2018-06-12T00:21:56.605Z,15.6
2018-06-12T00:23:05.242Z,15.52
2018-06-12T00:24:14.151Z,15.39
2018-06-12T00:25:23.062Z,15.39
2018-06-12T00:26:31.710Z,15.36
2018-06-12T00:27:40.367Z,15.39
2018-06-12T00:28:49.263Z,15.27
2018-06-12T00:29:57.909Z,15.29
2018-06-12T00:31:06.552Z,15.18
2018-06-12T00:32:15.472Z,15.22
2018-06-12T00:33:24.110Z,15.15
2018-06-12T00:34:33.031Z,15.22
2018-06-12T00:35:41.676Z,15.12
2018-06-12T00:36:50.597Z,15.22
2018-06-12T00:37:59.237Z,15.18
2018-06-12T00:39:07.882Z,15.07
2018-06-12T00:40:16.528Z,15.1
2018-06-12T00:41:25.183Z,15.05
2018-06-12T00:42:34.092Z,15.02
2018-06-12T00:43:42.737Z,15.05
2018-06-12T00:44:51.388Z,15.04
2018-06-12T00:47:08.690Z,15.02
2018-06-12T00:48:17.328Z,14.96
2018-06-12T00:49:25.977Z,14.89
2018-06-12T00:50:34.878Z,14.9
2018-06-12T00:51:43.532Z,14.9
2018-06-12T00:52:52.171Z,14.94
2018-06-12T00:54:00.819Z,14.92
2018-06-12T00:55:09.463Z,14.92
2018-06-12T00:56:18.110Z,14.82
2018-06-12T00:57:26.755Z,14.89
2018-06-12T00:58:35.403Z,14.68
2018-06-12T00:59:44.043Z,14.73
2018-06-12T01:00:52.689Z,14.68
2018-06-12T01:02:01.336Z,14.66
2018-06-12T01:03:09.983Z,14.63
2018-06-12T01:04:18.632Z,14.7
2018-06-12T01:05:27.272Z,14.66
2018-06-12T01:06:35.915Z,14.63
2018-06-12T01:07:44.559Z,14.62
2018-06-12T01:08:53.213Z,14.66
2018-06-12T01:10:01.853Z,14.67
2018-06-12T01:11:10.763Z,14.62
2018-06-12T01:12:19.418Z,14.67
2018-06-12T01:13:28.327Z,14.66
2018-06-12T01:14:36.967Z,14.71
2018-06-12T01:15:45.612Z,14.66
2018-06-12T01:16:54.255Z,14.7
2018-06-12T01:18:02.904Z,14.71
2018-06-12T01:19:11.547Z,14.62
2018-06-12T01:20:20.462Z,14.61
2018-06-12T01:21:29.109Z,14.67
2018-06-12T01:22:37.751Z,14.55
2018-06-12T01:23:46.403Z,14.67
2018-06-12T01:24:55.050Z,14.58
2018-06-12T01:26:03.697Z,14.59
2018-06-12T01:27:12.599Z,14.61
2018-06-12T01:28:21.248Z,14.63
2018-06-12T01:29:29.894Z,14.62
2018-06-12T01:30:38.540Z,14.66
2018-06-12T01:31:47.183Z,14.7
2018-06-12T01:32:55.836Z,14.61
2018-06-12T01:34:04.477Z,14.62
2018-06-12T01:35:13.125Z,14.63
2018-06-12T01:36:21.765Z,14.7
2018-06-12T01:37:30.413Z,14.63
2018-06-12T01:38:39.056Z,14.73
2018-06-12T01:39:47.703Z,14.71
2018-06-12T01:40:56.350Z,14.63
2018-06-12T01:42:04.993Z,14.67
2018-06-12T01:43:13.637Z,14.61
2018-06-12T01:44:22.282Z,14.61
2018-06-12T01:45:30.936Z,14.74
2018-06-12T01:46:39.842Z,14.78
2018-06-12T01:47:48.491Z,14.77
2018-06-12T01:48:57.133Z,14.68
2018-06-12T01:50:05.786Z,14.74
2018-06-12T01:51:14.433Z,14.73
2018-06-12T01:52:23.074Z,14.73
2018-06-12T01:53:31.979Z,14.73
2018-06-12T01:54:40.903Z,14.78
2018-06-12T01:55:49.540Z,14.7
2018-06-12T01:56:58.181Z,14.77
2018-06-12T01:58:06.827Z,14.73
2018-06-12T01:59:15.737Z,14.77
2018-06-12T02:00:24.387Z,14.59
2018-06-12T02:01:33.026Z,14.66
2018-06-12T02:02:41.677Z,14.67
2018-06-12T02:03:50.314Z,14.62
2018-06-12T02:04:58.968Z,14.67
2018-06-12T02:06:07.607Z,14.67
2018-06-12T02:07:16.258Z,14.62
2018-06-12T02:08:24.892Z,14.62
2018-06-12T02:13:22.569Z,14.56
2018-06-12T02:14:31.482Z,14.52
2018-06-12T02:15:40.116Z,14.53
2018-06-12T02:16:49.024Z,14.61
2018-06-12T02:17:57.672Z,14.53
2018-06-12T02:19:06.324Z,14.43
2018-06-12T02:20:14.969Z,14.53
2018-06-12T02:21:23.604Z,14.48
2018-06-12T02:22:32.256Z,14.43
2018-06-12T02:23:40.896Z,14.48
2018-06-12T02:24:49.552Z,14.44
2018-06-12T02:25:58.181Z,14.48
2018-06-12T02:27:06.837Z,14.4
2018-06-12T02:28:15.480Z,14.41
2018-06-12T02:29:24.136Z,14.48
2018-06-12T02:30:33.035Z,14.4
2018-06-12T02:31:41.689Z,14.48
2018-06-12T02:32:50.332Z,14.43
2018-06-12T02:33:58.991Z,14.44
2018-06-12T02:35:07.637Z,14.44
2018-06-12T02:36:16.286Z,14.43
2018-06-12T02:37:25.194Z,14.4
2018-06-12T02:38:33.839Z,14.41
2018-06-12T02:39:42.492Z,14.44
2018-06-12T02:40:51.137Z,14.36
2018-06-12T02:42:00.064Z,14.45
2018-06-12T02:43:08.696Z,14.43
2018-06-12T02:44:17.353Z,14.37
2018-06-12T02:45:25.996Z,14.33
2018-06-12T02:46:34.649Z,14.37
2018-06-12T02:47:43.289Z,14.38
2018-06-12T02:48:52.208Z,14.36
2018-06-12T02:50:00.851Z,14.43
2018-06-12T02:51:09.768Z,14.43
2018-06-12T02:52:18.411Z,14.38
2018-06-12T02:53:27.056Z,14.37
2018-06-12T02:54:35.991Z,14.36
2018-06-12T02:55:44.896Z,14.41
2018-06-12T02:56:53.543Z,14.31
2018-06-12T02:58:02.201Z,14.3
2018-06-12T02:59:10.844Z,14.28
2018-06-12T03:00:19.764Z,14.28
2018-06-12T03:01:28.401Z,14.36
2018-06-12T03:02:37.311Z,14.23
2018-06-12T03:03:45.951Z,14.28
2018-06-12T03:04:54.602Z,14.38
2018-06-12T03:06:03.240Z,14.33
2018-06-12T03:07:11.895Z,14.37
2018-06-12T03:08:20.547Z,14.26
2018-06-12T03:09:29.459Z,14.25
2018-06-12T03:10:38.359Z,14.28
2018-06-12T03:11:47.018Z,14.26
2018-06-12T03:12:55.669Z,14.28
2018-06-12T03:14:04.583Z,14.31
2018-06-12T03:15:13.240Z,14.28
2018-06-12T03:16:22.139Z,14.26
2018-06-12T03:17:30.791Z,14.31
2018-06-12T03:18:39.696Z,14.28
2018-06-12T03:19:48.350Z,14.31
2018-06-12T03:20:56.989Z,14.34
2018-06-12T03:22:06.182Z,14.33
2018-06-12T03:23:14.843Z,14.25
2018-06-12T03:24:23.477Z,14.25
2018-06-12T03:25:32.113Z,14.26
2018-06-12T03:26:40.760Z,14.26
2018-06-12T03:27:49.404Z,14.26
2018-06-12T03:28:58.325Z,14.28
2018-06-12T03:30:06.968Z,14.25
2018-06-12T03:31:15.617Z,14.22
2018-06-12T03:32:24.268Z,14.22
2018-06-12T03:33:32.904Z,14.16
2018-06-12T03:34:41.825Z,14.2
2018-06-12T03:35:50.467Z,14.22
2018-06-12T03:36:59.114Z,14.2
2018-06-12T03:38:08.024Z,14.22
2018-06-12T03:39:16.682Z,14.25
2018-06-12T03:40:25.323Z,14.12
2018-06-12T03:41:34.280Z,14.12
2018-06-12T03:42:42.920Z,14.07
2018-06-12T03:43:51.834Z,14
2018-06-12T03:45:00.475Z,14.03
2018-06-12T03:46:09.124Z,14.11
2018-06-12T03:47:17.758Z,14.07
2018-06-12T03:48:26.406Z,14.12
2018-06-12T03:49:35.055Z,14.05
2018-06-12T03:50:43.708Z,14.08
2018-06-12T03:51:52.620Z,14.07
2018-06-12T03:53:01.256Z,14.05
2018-06-12T03:54:10.171Z,14.13
2018-06-12T03:55:18.817Z,14.13
2018-06-12T03:56:27.465Z,14.25
2018-06-12T03:57:36.124Z,14.22
2018-06-12T03:58:44.750Z,14.23
2018-06-12T03:59:53.398Z,14.25
2018-06-12T04:01:02.056Z,14.23
2018-06-12T04:02:10.692Z,14.25
2018-06-12T04:03:19.341Z,14.3
2018-06-12T04:04:28.258Z,14.37
2018-06-12T04:05:36.905Z,14.28
2018-06-12T04:06:45.836Z,14.43
2018-06-12T04:07:54.484Z,14.44
2018-06-12T04:09:03.125Z,14.41
2018-06-12T04:10:12.042Z,14.43
2018-06-12T04:11:20.693Z,14.41
2018-06-12T04:12:29.596Z,14.4
2018-06-12T04:13:38.242Z,14.43
2018-06-12T04:14:46.984Z,14.51
2018-06-12T04:15:55.986Z,14.55
2018-06-12T04:17:04.634Z,14.55
2018-06-12T04:18:13.285Z,14.52
2018-06-12T04:19:22.333Z,14.51
2018-06-12T04:20:31.147Z,14.51
2018-06-12T04:21:39.776Z,14.55
2018-06-12T04:22:48.425Z,14.55
2018-06-12T04:23:57.065Z,14.58
2018-06-12T04:25:05.718Z,14.55
2018-06-12T04:26:14.364Z,14.55
2018-06-12T04:27:23.012Z,14.58
2018-06-12T04:28:31.921Z,14.56
2018-06-12T04:29:40.567Z,14.62
2018-06-12T04:30:49.215Z,14.68
2018-06-12T04:31:58.120Z,14.66
2018-06-12T04:33:06.769Z,14.59
2018-06-12T04:34:15.410Z,14.56
2018-06-12T04:35:24.056Z,14.61
2018-06-12T04:36:32.710Z,14.56
2018-06-12T04:37:41.617Z,14.61
2018-06-12T04:38:50.257Z,14.63
2018-06-12T04:39:58.899Z,14.66
2018-06-12T04:41:07.546Z,14.62
2018-06-12T04:42:16.195Z,14.68
2018-06-12T04:43:24.919Z,14.62
2018-06-12T04:44:33.484Z,14.7
2018-06-12T04:45:42.126Z,14.66
2018-06-12T04:46:50.769Z,14.67
2018-06-12T04:47:59.424Z,14.66
2018-06-12T04:49:08.345Z,14.66
2018-06-12T04:50:17.258Z,14.66
2018-06-12T04:51:25.898Z,14.62
2018-06-12T04:52:34.543Z,14.68
2018-06-12T04:53:43.193Z,14.7
2018-06-12T04:54:51.837Z,14.67
2018-06-12T04:56:00.755Z,14.77
2018-06-12T04:57:09.654Z,14.71
2018-06-12T04:58:18.307Z,14.71
2018-06-12T04:59:26.950Z,14.71
2018-06-12T05:00:35.603Z,14.86
2018-06-12T05:01:44.246Z,14.79
2018-06-12T05:02:52.888Z,14.86
2018-06-12T05:04:01.797Z,14.9
2018-06-12T05:05:10.440Z,14.86
2018-06-12T05:06:19.094Z,14.92
2018-06-12T05:07:27.737Z,14.89
2018-06-12T05:08:36.387Z,14.85
2018-06-12T05:09:45.303Z,14.93
2018-06-12T05:10:53.955Z,14.97
2018-06-12T05:12:02.594Z,14.93
2018-06-12T05:13:11.246Z,14.9
2018-06-12T05:14:20.147Z,15.04
2018-06-12T05:15:28.805Z,15.05
2018-06-12T05:16:37.449Z,15.11
2018-06-12T05:17:46.096Z,14.99
2018-06-12T05:18:54.738Z,15.02
2018-06-12T05:20:03.390Z,15.07
2018-06-12T05:21:12.568Z,15.04
2018-06-12T05:22:21.215Z,14.93
2018-06-12T05:23:29.862Z,15.05
2018-06-12T05:24:38.508Z,14.92
2018-06-12T05:25:47.161Z,14.89
2018-06-12T05:26:55.800Z,15.05
2018-06-12T05:28:04.454Z,14.94
2018-06-12T05:29:13.098Z,14.96
2018-06-12T05:30:22.011Z,15.05
2018-06-12T05:31:30.651Z,15.14
2018-06-12T05:32:39.309Z,15.14
2018-06-12T05:33:47.945Z,15.12
2018-06-12T05:34:56.594Z,15.17
2018-06-12T05:36:05.243Z,15.25
2018-06-12T05:37:13.901Z,15.18
2018-06-12T05:38:22.544Z,15.18
2018-06-12T05:39:31.185Z,15.22
2018-06-12T05:40:39.831Z,15.26
2018-06-12T05:41:48.738Z,15.26
2018-06-12T05:42:57.941Z,15.3
2018-06-12T05:44:06.581Z,15.29
2018-06-12T05:45:15.234Z,15.43
2018-06-12T05:46:23.870Z,15.39
2018-06-12T05:47:32.526Z,15.43
2018-06-12T05:48:41.164Z,15.48
2018-06-12T05:49:49.815Z,15.55
2018-06-12T05:50:58.726Z,15.55
2018-06-12T05:52:07.381Z,15.54
2018-06-12T05:53:16.282Z,15.62
2018-06-12T05:54:24.931Z,15.48
2018-06-12T05:55:33.572Z,15.5
2018-06-12T05:56:42.227Z,15.6
2018-06-12T05:57:50.869Z,15.57
2018-06-12T05:58:59.518Z,15.47
2018-06-12T06:00:08.167Z,15.62
2018-06-12T06:01:16.827Z,15.54
2018-06-12T06:02:25.456Z,15.44
2018-06-12T06:03:34.101Z,15.51
2018-06-12T06:04:42.752Z,15.5
2018-06-12T06:05:51.396Z,15.51
2018-06-12T06:07:00.043Z,15.48
2018-06-12T06:08:08.689Z,15.65
2018-06-12T06:09:17.344Z,15.75
2018-06-12T06:10:25.988Z,15.85
2018-06-12T06:11:34.639Z,15.85
2018-06-12T06:12:43.284Z,15.9
2018-06-12T06:13:51.937Z,15.99
2018-06-12T06:15:00.580Z,16.06
2018-06-12T06:16:09.227Z,16.08
2018-06-12T06:17:17.868Z,15.87
2018-06-12T06:18:26.515Z,15.99
2018-06-12T06:19:35.164Z,15.9
2018-06-12T06:20:43.811Z,15.98
2018-06-12T06:21:52.456Z,15.91
2018-06-12T06:23:01.100Z,15.99
2018-06-12T06:24:09.745Z,15.91
2018-06-12T06:25:18.655Z,15.96
2018-06-12T06:26:27.313Z,16.06
2018-06-12T06:27:36.486Z,16.05
2018-06-12T06:28:45.139Z,16.1
2018-06-12T06:29:53.783Z,16.02
2018-06-12T06:31:02.697Z,15.99
2018-06-12T06:32:11.339Z,16.03
2018-06-12T06:33:19.988Z,16.05
2018-06-12T06:34:28.634Z,16.05
2018-06-12T06:35:37.286Z,16.03
2018-06-12T06:36:46.194Z,16.08
2018-06-12T06:37:55.373Z,16.08
2018-06-12T06:39:04.023Z,16.13
2018-06-12T06:40:12.670Z,16.21
2018-06-12T06:41:21.583Z,16.12
2018-06-12T06:42:30.226Z,16.22
2018-06-12T06:43:38.873Z,16.36
2018-06-12T06:44:47.520Z,16.36
2018-06-12T06:45:56.176Z,16.49
2018-06-12T06:47:05.078Z,16.58
2018-06-12T06:48:13.728Z,16.64
2018-06-12T06:49:22.375Z,16.65
2018-06-12T06:50:31.014Z,16.66
2018-06-12T06:51:39.928Z,16.59
2018-06-12T06:52:48.577Z,16.58
2018-06-12T06:53:57.231Z,16.55
2018-06-12T06:55:06.416Z,16.5
2018-06-12T06:56:15.060Z,16.55
2018-06-12T06:57:23.705Z,16.5
2018-06-12T06:58:32.351Z,16.51
2018-06-12T06:59:41.002Z,16.59
2018-06-12T07:00:49.907Z,16.65
2018-06-12T07:01:58.567Z,16.59
2018-06-12T07:03:07.223Z,16.69
2018-06-12T07:04:15.871Z,16.69
2018-06-12T07:05:24.515Z,16.72
2018-06-12T07:06:33.165Z,16.69
2018-06-12T07:07:41.810Z,16.66
2018-06-12T07:08:50.726Z,16.72
2018-06-12T07:09:59.371Z,16.62
2018-06-12T07:11:08.016Z,16.68
2018-06-12T07:12:16.663Z,16.69
2018-06-12T07:13:25.576Z,16.69
2018-06-12T07:14:34.492Z,16.69
2018-06-12T07:15:43.139Z,16.66
2018-06-12T07:16:51.782Z,16.68
2018-06-12T07:18:00.425Z,16.87
2018-06-12T07:19:09.078Z,16.97
2018-06-12T07:20:18.059Z,17.05
2018-06-12T07:21:26.734Z,17.14
2018-06-12T07:22:35.382Z,17.23
2018-06-12T07:23:44.306Z,17.42
2018-06-12T07:24:53.213Z,17.53
2018-06-12T07:26:01.866Z,17.69
2018-06-12T07:27:10.518Z,17.73
2018-06-12T07:28:19.167Z,17.72
2018-06-12T07:29:28.076Z,17.82
2018-06-12T07:30:37.374Z,17.87
2018-06-12T07:31:46.610Z,17.93
2018-06-12T07:32:55.261Z,18.06
2018-06-12T07:34:03.913Z,18.09
2018-06-12T07:35:12.827Z,18.19
2018-06-12T07:36:21.479Z,18.21
2018-06-12T07:37:30.412Z,18.26
2018-06-12T07:38:39.422Z,18.3
2018-06-12T07:39:48.070Z,18.24
2018-06-12T07:40:56.722Z,18.18
2018-06-12T07:42:05.367Z,18.12
2018-06-12T07:43:14.136Z,18
2018-06-12T07:44:22.935Z,17.84
2018-06-12T07:45:31.621Z,17.87
2018-06-12T07:46:40.612Z,17.95
2018-06-12T07:47:49.315Z,17.97
2018-06-12T07:48:57.957Z,18
2018-06-12T07:50:06.611Z,18
2018-06-12T07:51:15.269Z,18.03
2018-06-12T07:52:23.913Z,18.12
2018-06-12T07:53:32.565Z,18.26
2018-06-12T07:54:41.210Z,18.3
2018-06-12T07:55:49.864Z,18.26
2018-06-12T07:56:58.771Z,18.27
2018-06-12T07:58:08.345Z,18.28
2018-06-12T07:59:17.378Z,18.09
2018-06-12T08:00:26.070Z,18.12
2018-06-12T08:01:34.984Z,18.03
2018-06-12T08:02:43.635Z,18.03
2018-06-12T08:03:52.540Z,18.11
2018-06-12T08:05:01.195Z,18.08
2018-06-12T08:06:09.846Z,18.21
2018-06-12T08:07:18.498Z,18.27
2018-06-12T08:08:27.150Z,18.3
2018-06-12T08:09:35.799Z,18.28
2018-06-12T08:10:44.452Z,18.27
2018-06-12T08:11:53.104Z,18.26
2018-06-12T08:13:01.809Z,18.3
2018-06-12T08:14:10.795Z,18.34
2018-06-12T08:15:19.447Z,18.27
2018-06-12T08:16:28.089Z,18.28
2018-06-12T08:17:36.748Z,18.3
2018-06-12T08:18:45.388Z,18.28
2018-06-12T08:19:54.041Z,18.27
2018-06-12T08:21:02.687Z,18.26
2018-06-12T08:22:11.610Z,18.27
2018-06-12T08:23:20.524Z,18.26
2018-06-12T08:24:29.168Z,18.12
2018-06-12T08:25:37.809Z,18.08
2018-06-12T08:26:46.459Z,17.95
2018-06-12T08:27:55.115Z,17.95
2018-06-12T08:29:03.763Z,18.09
2018-06-12T08:30:12.521Z,18.06
2018-06-12T08:31:21.498Z,18.03
2018-06-12T08:32:30.154Z,18.05
2018-06-12T08:33:38.799Z,18.08
2018-06-12T08:34:47.451Z,18.06
2018-06-12T08:35:56.362Z,18.09
2018-06-12T08:37:05.022Z,17.97
2018-06-12T08:38:13.666Z,17.9
2018-06-12T08:39:22.315Z,18.05
2018-06-12T08:40:30.966Z,18.24
2018-06-12T08:41:39.611Z,18.18
2018-06-12T08:42:48.530Z,18.24
2018-06-12T08:43:57.181Z,18.48
2018-06-12T08:45:05.841Z,18.55
2018-06-12T08:46:14.746Z,18.52
2018-06-12T08:47:23.394Z,18.53
2018-06-12T08:48:32.046Z,18.57
2018-06-12T08:49:40.967Z,18.53
2018-06-12T08:50:49.611Z,18.6
2018-06-12T08:51:58.526Z,18.57
2018-06-12T08:53:07.173Z,18.67
2018-06-12T08:54:15.824Z,18.76
2018-06-12T08:55:24.469Z,18.71
2018-06-12T08:56:33.385Z,18.81
2018-06-12T08:57:42.033Z,18.97
2018-06-12T08:58:50.688Z,19.05
2018-06-12T08:59:59.332Z,19.19
2018-06-12T09:01:07.983Z,19.08
2018-06-12T09:02:16.904Z,19.15
2018-06-12T09:03:25.551Z,19.16
2018-06-12T09:04:34.204Z,19.15
2018-06-12T09:05:42.853Z,19.15
2018-06-12T09:06:51.502Z,19.26
2018-06-12T09:08:00.148Z,19.35
2018-06-12T09:09:08.802Z,19.39
2018-06-12T09:10:17.452Z,19.53
2018-06-12T09:11:26.107Z,19.56
2018-06-12T09:12:34.751Z,19.59
2018-06-12T09:13:43.680Z,19.71
2018-06-12T09:14:52.608Z,19.66
2018-06-12T09:16:01.567Z,19.62
2018-06-12T09:17:10.533Z,19.59
2018-06-12T09:18:19.609Z,19.64
2018-06-12T09:19:28.357Z,19.52
2018-06-12T09:20:37.221Z,19.32
2018-06-12T09:21:45.918Z,19.22
2018-06-12T09:22:54.571Z,19.15
2018-06-12T09:24:03.220Z,19.11
2018-06-12T09:25:12.339Z,19.08
2018-06-12T09:26:20.879Z,19.01
2018-06-12T09:27:29.526Z,19.19
2018-06-12T09:28:38.174Z,19.22
2018-06-12T09:29:46.825Z,19.19
2018-06-12T09:30:55.561Z,19.3
2018-06-12T09:32:04.474Z,19.23
2018-06-12T09:33:13.142Z,19.24
2018-06-12T09:34:21.785Z,19.27
2018-06-12T09:35:30.443Z,19.35
2018-06-12T09:36:39.092Z,19.3
2018-06-12T09:37:47.738Z,19.42
2018-06-12T09:38:56.384Z,19.47
2018-06-12T09:40:05.033Z,19.62
2018-06-12T09:41:13.690Z,19.84
2018-06-12T09:42:22.339Z,20.14
2018-06-12T09:43:30.991Z,20.3
2018-06-12T09:44:39.898Z,20.59
2018-06-12T09:45:48.557Z,20.78
2018-06-12T09:46:57.202Z,21
2018-06-12T09:48:05.856Z,21.11
2018-06-12T09:49:14.495Z,21
2018-06-12T09:50:23.155Z,20.92
2018-06-12T09:51:31.802Z,20.8
2018-06-12T09:52:40.458Z,20.74
2018-06-12T09:53:49.104Z,20.5
2018-06-12T09:54:57.751Z,20.55
2018-06-12T09:56:06.956Z,20.6
2018-06-12T09:57:15.609Z,20.52
2018-06-12T09:58:24.265Z,20.5
2018-06-12T09:59:33.172Z,20.32
2018-06-12T10:00:41.824Z,20.18
2018-06-12T10:01:50.477Z,20.21
2018-06-12T10:02:59.398Z,20.03
2018-06-12T10:04:08.044Z,19.9
2018-06-12T10:05:16.963Z,19.89
2018-06-12T10:06:25.611Z,19.93
2018-06-12T10:07:34.269Z,20.1
2018-06-12T10:08:42.911Z,20.02
2018-06-12T10:09:51.563Z,20.19
2018-06-12T10:11:00.213Z,20.1
2018-06-12T10:12:08.873Z,20.08
2018-06-12T10:13:17.523Z,20.08
2018-06-12T10:14:26.167Z,20.14
2018-06-12T10:15:34.814Z,20.27
2018-06-12T10:16:43.461Z,20.22
2018-06-12T10:17:52.123Z,20.24
2018-06-12T10:19:00.772Z,20.14
2018-06-12T10:20:09.433Z,20.21
2018-06-12T10:21:18.337Z,20.12
2018-06-12T10:22:26.994Z,20.02
2018-06-12T10:23:35.640Z,20
2018-06-12T10:24:44.295Z,19.89
2018-06-12T10:25:52.937Z,19.85
2018-06-12T10:27:01.596Z,20
2018-06-12T10:28:10.245Z,19.94
2018-06-12T10:29:18.906Z,19.96
2018-06-12T10:30:27.816Z,20.04
2018-06-12T10:31:36.469Z,20.12
2018-06-12T10:32:45.125Z,20.03
2018-06-12T10:33:53.776Z,20.1
2018-06-12T10:35:02.684Z,20.1
2018-06-12T10:36:11.325Z,20.19
2018-06-12T10:37:20.065Z,20.21
2018-06-12T10:38:28.622Z,20.19
2018-06-12T10:39:37.282Z,20.21
2018-06-12T10:40:46.191Z,20.29
2018-06-12T10:41:54.845Z,20.26
2018-06-12T10:43:03.493Z,20.34
2018-06-12T10:44:12.668Z,20.39
2018-06-12T10:45:21.328Z,20.46
2018-06-12T10:46:29.977Z,20.33
2018-06-12T10:47:38.627Z,20.19
2018-06-12T10:48:47.271Z,20.27
2018-06-12T10:49:55.972Z,20.22
2018-06-12T10:51:04.578Z,20.27
2018-06-12T10:52:13.231Z,20.3
2018-06-12T10:53:21.885Z,20.4
2018-06-12T10:54:30.786Z,20.39
2018-06-12T10:55:39.493Z,20.29
2018-06-12T10:56:48.536Z,20.24
2018-06-12T10:57:57.256Z,20.22
2018-06-12T10:59:05.898Z,20.21
2018-06-12T11:00:14.556Z,20.32
2018-06-12T11:01:23.468Z,20.39
2018-06-12T11:02:32.127Z,20.44
2018-06-12T11:03:41.034Z,20.63
2018-06-12T11:04:49.686Z,20.59
2018-06-12T11:05:58.333Z,20.64
2018-06-12T11:07:06.995Z,20.74
2018-06-12T11:08:15.642Z,20.75
2018-06-12T11:09:24.293Z,20.92
2018-06-12T11:10:32.943Z,21.01
2018-06-12T11:11:41.592Z,21.17
2018-06-12T11:12:50.253Z,21.23
2018-06-12T11:13:58.897Z,21.25
2018-06-12T11:15:07.816Z,21.19
2018-06-12T11:16:16.459Z,21.05
2018-06-12T11:17:25.121Z,20.93
2018-06-12T11:18:33.773Z,20.93
2018-06-12T11:19:42.430Z,21.03
2018-06-12T11:20:51.155Z,21.11
2018-06-12T11:22:00.037Z,21.05
2018-06-12T11:23:09.005Z,21.08
2018-06-12T11:24:17.658Z,21.14
2018-06-12T11:25:26.304Z,21.11
2018-06-12T11:26:35.219Z,21.03
2018-06-12T11:27:43.874Z,20.88
2018-06-12T11:28:52.532Z,20.85
2018-06-12T11:30:01.184Z,20.8
2018-06-12T11:31:09.826Z,20.75
2018-06-12T11:32:18.752Z,20.83
2018-06-12T11:33:27.397Z,20.83
2018-06-12T11:34:36.059Z,20.82
2018-06-12T11:35:44.703Z,20.88
2018-06-12T11:36:53.357Z,20.75
2018-06-12T11:38:02.007Z,20.85
2018-06-12T11:39:10.665Z,20.82
2018-06-12T11:40:19.307Z,20.71
2018-06-12T11:41:27.963Z,20.78
2018-06-12T11:42:36.616Z,20.71
2018-06-12T11:43:45.272Z,20.73
2018-06-12T11:44:53.916Z,20.66
2018-06-12T11:46:02.569Z,20.59
2018-06-12T11:47:11.487Z,20.6
2018-06-12T11:48:20.139Z,20.64
2018-06-12T11:49:28.797Z,20.67
2018-06-12T11:50:37.448Z,20.59
2018-06-12T11:51:46.365Z,20.49
2018-06-12T11:52:55.014Z,20.4
2018-06-12T11:54:03.931Z,20.26
2018-06-12T11:55:12.580Z,20.22
2018-06-12T11:56:21.232Z,20.17
2018-06-12T11:57:29.880Z,20.14
2018-06-12T11:58:38.538Z,20.27
2018-06-12T11:59:47.186Z,20.29
2018-06-12T12:00:55.840Z,20.27
2018-06-12T12:02:05.029Z,20.24
2018-06-12T12:03:13.718Z,20.36
2018-06-12T12:04:22.370Z,20.44
2018-06-12T12:05:31.017Z,20.44
2018-06-12T12:06:39.670Z,20.37
2018-06-12T12:07:48.317Z,20.53
2018-06-12T12:08:56.966Z,20.55
2018-06-12T12:10:05.898Z,20.48
2018-06-12T12:11:14.559Z,20.48
2018-06-12T12:12:23.227Z,20.48
2018-06-12T12:13:31.863Z,20.49
2018-06-12T12:14:40.513Z,20.55
2018-06-12T12:15:49.170Z,20.58
2018-06-12T12:16:57.869Z,20.52
2018-06-12T12:18:06.472Z,20.53
2018-06-12T12:19:15.121Z,20.4
2018-06-12T12:20:23.777Z,20.42
2018-06-12T12:21:32.425Z,20.53
2018-06-12T12:22:41.076Z,20.53
2018-06-12T12:23:49.722Z,20.59
2018-06-12T12:24:58.369Z,20.71
2018-06-12T12:26:07.035Z,20.77
2018-06-12T12:27:15.685Z,20.85
2018-06-12T12:28:24.601Z,20.75
2018-06-12T12:29:33.247Z,20.88
2018-06-12T12:30:42.438Z,20.92
2018-06-12T12:31:51.085Z,20.89
2018-06-12T12:32:59.735Z,20.9
2018-06-12T12:34:10.595Z,20.89
2018-06-12T12:35:19.682Z,20.89
2018-06-12T12:36:28.529Z,21.01
2018-06-12T12:37:37.459Z,20.89
2018-06-12T12:38:46.397Z,20.89
2018-06-12T12:39:55.177Z,21
2018-06-12T12:41:03.825Z,20.88
2018-06-12T12:42:12.480Z,20.83
2018-06-12T12:43:21.394Z,20.77
2018-06-12T12:44:31.235Z,20.85
2018-06-12T12:45:40.278Z,20.73
2018-06-12T12:46:49.117Z,20.74
2018-06-12T12:47:58.574Z,20.86
2018-06-12T12:49:07.327Z,20.89
2018-06-12T12:50:16.242Z,20.89
2018-06-12T12:51:24.892Z,20.95
2018-06-12T12:52:33.547Z,20.89
2018-06-12T12:53:42.194Z,20.8
2018-06-12T12:54:50.847Z,20.71
2018-06-12T12:55:59.535Z,20.66
2018-06-12T12:57:08.154Z,20.6
2018-06-12T12:58:17.342Z,20.59
2018-06-12T12:59:25.990Z,20.55
2018-06-12T13:00:34.637Z,20.59
2018-06-12T13:01:43.287Z,20.53
2018-06-12T13:02:51.942Z,20.55
2018-06-12T13:04:00.594Z,20.46
2018-06-12T13:05:09.244Z,20.46
2018-06-12T13:06:17.897Z,20.39
2018-06-12T13:07:26.548Z,20.26
2018-06-12T13:08:35.198Z,20.12
2018-06-12T13:09:43.850Z,20.15
2018-06-12T13:10:52.498Z,20.04
2018-06-12T13:12:01.677Z,20.03
2018-06-12T13:13:10.331Z,20.02
2018-06-12T13:14:18.983Z,19.93
2018-06-12T13:15:27.895Z,19.93
2018-06-12T13:16:36.821Z,19.96
2018-06-12T13:17:45.737Z,19.9
2018-06-12T13:18:54.394Z,20.04
2018-06-12T13:20:03.048Z,20.02
2018-06-12T13:21:11.695Z,19.92
2018-06-12T13:22:20.345Z,19.99
2018-06-12T13:23:28.995Z,19.94
2018-06-12T13:24:37.649Z,19.85
2018-06-12T13:25:46.297Z,19.97
2018-06-12T13:26:54.944Z,19.93
2018-06-12T13:28:03.591Z,19.93
2018-06-12T13:29:12.246Z,20.07
2018-06-12T13:30:21.159Z,20.08
2018-06-12T13:31:29.811Z,20.07
2018-06-12T13:32:38.464Z,20.03
2018-06-12T13:33:47.227Z,20.07
2018-06-12T13:34:56.167Z,20.02
2018-06-12T13:36:04.816Z,19.97
2018-06-12T13:37:13.470Z,19.93
2018-06-12T13:38:22.378Z,19.96
2018-06-12T13:39:31.302Z,19.96
2018-06-12T13:40:39.948Z,19.79
2018-06-12T13:41:48.603Z,19.85
2018-06-12T13:42:57.245Z,19.85
2018-06-12T13:44:05.903Z,19.75
2018-06-12T13:45:14.816Z,19.79
2018-06-12T13:46:23.498Z,19.81
2018-06-12T13:47:32.119Z,19.72
2018-06-12T13:48:40.774Z,19.66
2018-06-12T13:49:49.420Z,19.66
2018-06-12T13:50:58.073Z,19.66
2018-06-12T13:52:06.715Z,19.59
2018-06-12T13:53:15.366Z,19.59
2018-06-12T13:54:24.023Z,19.62
2018-06-12T13:55:32.685Z,19.56
2018-06-12T13:56:41.337Z,19.49
2018-06-12T13:57:49.989Z,19.48
2018-06-12T13:58:58.646Z,19.47
2018-06-12T14:00:07.290Z,19.53
2018-06-12T14:01:15.974Z,19.44
2018-06-12T14:02:24.859Z,19.44
2018-06-12T14:03:33.779Z,19.48
2018-06-12T14:04:42.427Z,19.45
2018-06-12T14:05:51.356Z,19.45
2018-06-12T14:07:00.016Z,19.52
2018-06-12T14:08:08.653Z,19.55
2018-06-12T14:09:17.301Z,19.59
2018-06-12T14:10:26.234Z,19.6
2018-06-12T14:11:34.927Z,19.64
2018-06-12T14:12:43.527Z,19.64
2018-06-12T14:13:52.176Z,19.72
2018-06-12T14:15:01.087Z,19.74
2018-06-12T14:16:09.746Z,19.82
2018-06-12T14:17:18.393Z,19.74
2018-06-12T14:18:27.046Z,19.71
2018-06-12T14:19:35.688Z,19.71
2018-06-12T14:20:44.349Z,19.63
2018-06-12T14:21:53.048Z,19.78
2018-06-12T14:23:02.202Z,19.85
2018-06-12T14:24:10.847Z,19.87
2018-06-12T14:25:19.503Z,19.93
2018-06-12T14:26:28.151Z,20.14
2018-06-12T14:27:37.333Z,20.19
2018-06-12T14:28:45.978Z,20.14
2018-06-12T14:29:54.629Z,20.29
2018-06-12T14:31:03.285Z,20.19
2018-06-12T14:32:11.937Z,20.26
2018-06-12T14:33:20.856Z,20.18
2018-06-12T14:34:29.765Z,20.19
2018-06-12T14:35:38.419Z,20.19
2018-06-12T14:36:47.065Z,20.12
2018-06-12T14:37:55.995Z,20.19
2018-06-12T14:39:04.914Z,20.07
2018-06-12T14:40:13.553Z,20.15
2018-06-12T14:41:22.207Z,20.22
2018-06-12T14:42:30.851Z,20.11
2018-06-12T14:43:39.510Z,20.15
2018-06-12T14:44:48.160Z,20.11
2018-06-12T14:45:56.813Z,20.12
2018-06-12T14:47:05.455Z,20.1
2018-06-12T14:48:14.108Z,19.94
2018-06-12T14:49:23.024Z,19.84
2018-06-12T14:50:31.677Z,19.81
2018-06-12T14:51:40.881Z,19.89
2018-06-12T14:52:49.523Z,19.79